RJOF(METAR)
06/25 14:00
METAR RJOF 250500Z 08008KT 050V110 9999 FEW030 27/17 Q1014 RMK
1CU030 A2996=
戻る
トップページへ戻る
IMOC Co,.Ltd.